Terminal Aerodrome Forecast
Issued by NWS

Home | Current Version | Previous Version | Text Only | Print | Product List | Glossary On
Versions: 1 2 3 4 5 6 7 8 9 10 11 12 13 14 15 16 17 18 19 20
000
FTUS43 KICT 021100
TAFHUT
TAF
KHUT 021136Z 0212/0312 36009KT P6SM SCT005 BKN015
      TEMPO 0212/0214 4SM BR BKN005
     FM021600 35016G23KT P6SM VCSH OVC030
     FM030000 34009KT P6SM SKC
     FM030900 35012G25KT P6SM SCT030 BKN120=

USA.gov is the U.S. government's official web portal to all federal, state and local government web resources and services.